createdAt,value
2022-09-20T00:01:21.681Z,8.40
2022-09-20T00:03:52.380Z,8.40
2022-09-20T00:06:23.000Z,8.30
2022-09-20T00:08:51.565Z,8.20
2022-09-20T00:11:21.766Z,8.20
2022-09-20T00:13:51.439Z,8.20
2022-09-20T00:16:23.016Z,8.20
2022-09-20T00:18:52.318Z,8.20
2022-09-20T00:21:22.258Z,8.10
2022-09-20T00:23:50.920Z,8.10
2022-09-20T00:26:19.023Z,8.10
2022-09-20T00:28:48.000Z,8.20
2022-09-20T00:31:16.709Z,8.20
2022-09-20T00:34:03.518Z,8.20
2022-09-20T00:36:32.304Z,8.20
2022-09-20T00:39:02.088Z,8.20
2022-09-20T00:41:31.236Z,8.20
2022-09-20T00:44:00.315Z,8.10
2022-09-20T00:46:34.404Z,8.10
2022-09-20T00:49:15.153Z,8.00
2022-09-20T00:51:48.288Z,8.00
2022-09-20T00:54:20.658Z,7.90
2022-09-20T00:56:50.034Z,7.90
2022-09-20T00:59:21.022Z,8.00
2022-09-20T01:01:53.167Z,8.00
2022-09-20T01:04:25.114Z,7.90
2022-09-20T01:06:56.062Z,7.90
2022-09-20T01:09:24.178Z,7.80
2022-09-20T01:11:55.411Z,7.80
2022-09-20T01:14:24.806Z,7.80
2022-09-20T01:16:56.394Z,7.70
2022-09-20T01:19:35.657Z,7.80
2022-09-20T01:22:07.917Z,7.70
2022-09-20T01:24:44.121Z,7.80
2022-09-20T01:27:23.489Z,7.80
2022-09-20T01:30:06.214Z,7.70
2022-09-20T01:32:45.452Z,7.70
2022-09-20T01:35:14.359Z,7.70
2022-09-20T01:37:54.364Z,7.70
2022-09-20T01:40:28.956Z,7.60
2022-09-20T01:43:06.566Z,7.50
2022-09-20T01:45:36.294Z,7.50
2022-09-20T01:48:14.695Z,7.50
2022-09-20T01:51:05.813Z,7.60
2022-09-20T01:53:58.833Z,7.50
2022-09-20T01:57:32.418Z,7.50
2022-09-20T02:00:14.210Z,7.50
2022-09-20T02:03:17.879Z,7.40
2022-09-20T02:06:18.145Z,7.40
2022-09-20T02:09:23.465Z,7.30
2022-09-20T02:12:07.284Z,7.30
2022-09-20T02:14:43.728Z,7.30
2022-09-20T02:17:16.372Z,7.30
2022-09-20T02:20:06.755Z,7.30
2022-09-20T02:22:50.163Z,7.30
2022-09-20T02:25:50.838Z,7.30
2022-09-20T02:28:31.181Z,7.30
2022-09-20T02:31:12.509Z,7.20
2022-09-20T02:33:58.367Z,7.30
2022-09-20T02:36:38.198Z,7.30
2022-09-20T02:39:16.360Z,7.30
2022-09-20T02:41:58.261Z,7.30
2022-09-20T02:44:47.079Z,7.30
2022-09-20T02:47:22.713Z,7.40
2022-09-20T02:50:04.332Z,7.40
2022-09-20T02:52:38.930Z,7.40
2022-09-20T02:55:15.003Z,7.30
2022-09-20T02:57:51.889Z,7.30
2022-09-20T03:00:24.330Z,7.30
2022-09-20T03:03:04.801Z,7.30
2022-09-20T03:05:40.908Z,7.30
2022-09-20T03:08:21.936Z,7.30
2022-09-20T03:10:58.253Z,7.30
2022-09-20T03:13:37.444Z,7.30
2022-09-20T03:16:14.167Z,7.30
2022-09-20T03:18:50.141Z,7.20
2022-09-20T03:21:30.968Z,7.20
2022-09-20T03:24:10.239Z,7.10
2022-09-20T03:26:53.992Z,7.10
2022-09-20T03:29:36.263Z,7.00
2022-09-20T03:32:16.640Z,6.90
2022-09-20T03:34:59.220Z,6.90
2022-09-20T03:37:42.593Z,6.90
2022-09-20T03:40:30.541Z,6.80
2022-09-20T03:43:10.511Z,6.80
2022-09-20T03:45:59.083Z,6.80
2022-09-20T03:48:58.148Z,6.80
2022-09-20T03:51:34.139Z,6.70
2022-09-20T03:54:43.628Z,6.70
2022-09-20T03:57:38.932Z,6.80
2022-09-20T04:00:29.258Z,6.80
2022-09-20T04:03:10.062Z,6.80
2022-09-20T04:05:51.033Z,6.90
2022-09-20T04:08:40.059Z,6.80
2022-09-20T04:11:17.560Z,6.90
2022-09-20T04:13:53.635Z,6.90
2022-09-20T04:16:36.324Z,6.90
2022-09-20T04:19:12.707Z,6.80
2022-09-20T04:21:47.167Z,6.80
2022-09-20T04:24:37.955Z,6.80
2022-09-20T04:27:13.566Z,6.80
2022-09-20T04:29:45.951Z,6.70
2022-09-20T04:32:23.077Z,6.70
2022-09-20T04:35:23.239Z,6.60
2022-09-20T04:37:53.113Z,6.60
2022-09-20T04:40:30.517Z,6.60
2022-09-20T04:43:37.730Z,6.70
2022-09-20T04:46:36.630Z,6.70
2022-09-20T04:49:54.943Z,6.70
2022-09-20T04:52:56.517Z,6.60
2022-09-20T04:55:52.918Z,6.60
2022-09-20T04:58:46.990Z,6.70
2022-09-20T05:02:10.164Z,6.70
2022-09-20T05:05:14.443Z,6.70
2022-09-20T05:08:20.858Z,6.70
2022-09-20T05:11:27.680Z,6.80
2022-09-20T05:14:24.875Z,6.80
2022-09-20T05:17:08.678Z,6.80
2022-09-20T05:19:48.644Z,6.80
2022-09-20T05:22:45.228Z,6.80
2022-09-20T05:25:42.525Z,6.80
2022-09-20T05:28:19.300Z,6.90
2022-09-20T05:30:50.906Z,6.90
2022-09-20T05:33:24.450Z,6.90
2022-09-20T05:36:03.427Z,6.90
2022-09-20T05:38:44.889Z,7.00
2022-09-20T05:41:19.820Z,6.90
2022-09-20T05:43:59.703Z,6.90
2022-09-20T05:46:41.101Z,7.00
2022-09-20T05:49:18.839Z,6.90
2022-09-20T05:52:05.562Z,6.90
2022-09-20T05:55:07.784Z,6.80
2022-09-20T05:57:48.882Z,6.90
2022-09-20T06:00:19.720Z,6.90
2022-09-20T06:02:55.175Z,7.00
2022-09-20T06:05:34.915Z,7.00
2022-09-20T06:08:31.116Z,7.00
2022-09-20T06:11:15.726Z,7.20
2022-09-20T06:14:02.111Z,7.20
2022-09-20T06:16:40.382Z,7.20
2022-09-20T06:19:17.262Z,7.30
2022-09-20T06:22:00.882Z,7.40
2022-09-20T06:24:37.815Z,7.50
2022-09-20T06:27:11.923Z,7.70
2022-09-20T06:29:45.839Z,7.80
2022-09-20T06:32:18.329Z,8.00
2022-09-20T06:34:47.727Z,8.20
2022-09-20T06:37:58.611Z,8.20
2022-09-20T06:40:53.836Z,8.40
2022-09-20T06:43:23.350Z,8.60
2022-09-20T06:45:51.478Z,8.80
2022-09-20T06:48:19.927Z,8.80
2022-09-20T06:50:48.080Z,8.90
2022-09-20T06:53:19.001Z,9.00
2022-09-20T06:55:47.957Z,9.20
2022-09-20T06:58:16.181Z,9.30
2022-09-20T07:00:46.135Z,9.40
2022-09-20T07:03:14.268Z,9.60
2022-09-20T07:05:42.414Z,9.70
2022-09-20T07:08:10.562Z,9.80
2022-09-20T07:10:39.123Z,9.90
2022-09-20T07:13:07.384Z,10.00
2022-09-20T07:15:36.337Z,10.20
2022-09-20T07:18:09.272Z,10.30
2022-09-20T07:20:37.928Z,10.30
2022-09-20T07:23:06.086Z,10.40
2022-09-20T07:25:34.335Z,10.40
2022-09-20T07:28:02.630Z,10.50
2022-09-20T07:30:30.761Z,10.70
2022-09-20T07:32:58.870Z,10.80
2022-09-20T07:35:28.532Z,10.90
2022-09-20T07:38:00.107Z,11.10
2022-09-20T07:40:28.293Z,11.20
2022-09-20T07:42:58.162Z,11.20
2022-09-20T07:45:26.360Z,11.40
2022-09-20T07:47:54.643Z,11.50
2022-09-20T07:50:22.812Z,11.70
2022-09-20T07:52:52.544Z,11.80
2022-09-20T07:55:20.698Z,11.80
2022-09-20T07:57:48.866Z,12.00
2022-09-20T08:00:17.172Z,12.20
2022-09-20T08:02:45.738Z,12.30
2022-09-20T08:05:13.879Z,12.40
2022-09-20T08:07:42.009Z,12.50
2022-09-20T08:10:12.102Z,12.60
2022-09-20T08:15:29.720Z,12.70
2022-09-20T08:17:58.094Z,12.80
2022-09-20T08:20:26.195Z,13.10
2022-09-20T08:23:19.542Z,13.30
2022-09-20T08:25:44.831Z,13.30
2022-09-20T08:28:12.918Z,13.40
2022-09-20T08:30:41.023Z,13.40
2022-09-20T08:33:09.267Z,13.50
2022-09-20T08:35:38.659Z,13.80
2022-09-20T08:41:02.028Z,13.90
2022-09-20T08:43:35.756Z,14.00
2022-09-20T08:46:06.083Z,13.80
2022-09-20T08:48:35.204Z,13.90
2022-09-20T08:51:05.588Z,14.10
2022-09-20T08:53:34.992Z,14.10
2022-09-20T08:56:04.814Z,14.10
2022-09-20T08:58:33.157Z,14.30
2022-09-20T09:01:02.028Z,14.30
2022-09-20T09:03:30.254Z,14.30
2022-09-20T09:05:59.403Z,14.40
2022-09-20T09:08:30.987Z,14.50
2022-09-20T09:11:01.210Z,14.60
2022-09-20T09:13:35.440Z,14.50
2022-09-20T09:16:09.297Z,14.60
2022-09-20T09:18:40.318Z,14.40
2022-09-20T09:21:10.499Z,14.60
2022-09-20T09:23:42.500Z,14.60
2022-09-20T09:26:19.000Z,14.70
2022-09-20T09:28:49.337Z,14.70
2022-09-20T09:31:25.939Z,14.90
2022-09-20T09:33:54.680Z,15.10
2022-09-20T09:36:25.420Z,14.80
2022-09-20T09:39:17.598Z,15.10
2022-09-20T09:41:46.513Z,15.10
2022-09-20T09:44:24.771Z,15.30
2022-09-20T09:46:54.542Z,15.40
2022-09-20T09:49:24.787Z,15.60
2022-09-20T09:52:05.860Z,15.90
2022-09-20T09:54:36.818Z,15.90
2022-09-20T09:57:17.429Z,16.00
2022-09-20T10:00:22.560Z,15.80
2022-09-20T10:03:20.777Z,15.80
2022-09-20T10:06:04.069Z,15.80
2022-09-20T10:08:42.495Z,15.80
2022-09-20T10:11:24.874Z,15.70
2022-09-20T10:14:05.468Z,15.80
2022-09-20T10:17:00.015Z,16.00
2022-09-20T10:19:44.045Z,16.10
2022-09-20T10:22:19.671Z,16.00
2022-09-20T10:24:56.558Z,15.90
2022-09-20T10:27:36.968Z,16.10
2022-09-20T10:30:11.727Z,16.30
2022-09-20T10:33:01.061Z,16.30
2022-09-20T10:35:38.853Z,16.50
2022-09-20T10:38:16.301Z,16.70
2022-09-20T10:41:37.282Z,16.70
2022-09-20T10:44:31.994Z,16.80
2022-09-20T10:47:06.838Z,16.80
2022-09-20T10:49:47.197Z,16.90
2022-09-20T10:52:41.575Z,16.80
2022-09-20T10:55:21.699Z,17.10
2022-09-20T10:58:14.198Z,17.40
2022-09-20T11:00:54.132Z,17.20
2022-09-20T11:03:38.348Z,16.90
2022-09-20T11:06:18.094Z,16.60
2022-09-20T11:08:50.919Z,16.10
2022-09-20T11:11:22.933Z,16.10
2022-09-20T11:13:59.489Z,16.20
2022-09-20T11:16:34.317Z,16.40
2022-09-20T11:19:07.371Z,16.50
2022-09-20T11:21:41.196Z,16.60
2022-09-20T11:24:20.066Z,16.70
2022-09-20T11:26:54.259Z,16.60
2022-09-20T11:29:27.349Z,16.70
2022-09-20T11:32:01.340Z,16.70
2022-09-20T11:34:34.249Z,17.00
2022-09-20T11:37:03.832Z,17.60
2022-09-20T11:39:38.917Z,17.80
2022-09-20T11:42:13.965Z,18.10
2022-09-20T11:44:43.560Z,18.30
2022-09-20T11:47:36.679Z,18.20
2022-09-20T11:50:44.427Z,18.40
2022-09-20T11:53:32.124Z,18.70
2022-09-20T11:56:07.246Z,19.10
2022-09-20T11:58:47.069Z,18.90
2022-09-20T12:01:16.414Z,19.60
2022-09-20T12:03:47.229Z,19.60
2022-09-20T12:06:28.249Z,19.40
2022-09-20T12:08:59.930Z,19.30
2022-09-20T12:11:31.242Z,19.10
2022-09-20T12:14:05.324Z,19.00
2022-09-20T12:16:42.272Z,19.30
2022-09-20T12:19:14.060Z,18.90
2022-09-20T12:22:28.476Z,19.00
2022-09-20T12:25:45.746Z,18.50
2022-09-20T12:28:17.360Z,17.80
2022-09-20T12:30:45.491Z,17.70
2022-09-20T12:33:22.168Z,17.50
2022-09-20T12:35:55.141Z,17.50
2022-09-20T12:38:50.864Z,17.40
2022-09-20T12:41:28.260Z,17.50
2022-09-20T12:44:05.806Z,17.60
2022-09-20T12:46:51.959Z,17.50
2022-09-20T12:49:40.463Z,17.70
2022-09-20T12:52:44.560Z,17.80
2022-09-20T12:55:26.886Z,17.80
2022-09-20T12:57:58.570Z,17.80
2022-09-20T13:00:38.489Z,17.60
2022-09-20T13:03:24.029Z,17.60
2022-09-20T13:06:28.258Z,17.70
2022-09-20T13:09:09.116Z,17.50
2022-09-20T13:11:42.076Z,17.20
2022-09-20T13:14:14.549Z,17.40
2022-09-20T13:16:52.264Z,18.00
2022-09-20T13:19:23.616Z,18.40
2022-09-20T13:21:59.406Z,18.70
2022-09-20T13:24:30.962Z,18.80
2022-09-20T13:27:06.430Z,18.90
2022-09-20T13:29:38.629Z,18.80
2022-09-20T13:32:19.543Z,18.80
2022-09-20T13:34:47.687Z,18.50
2022-09-20T13:37:23.469Z,18.40
2022-09-20T13:39:55.688Z,18.30
2022-09-20T13:42:28.164Z,17.90
2022-09-20T13:44:58.712Z,17.80
2022-09-20T13:47:28.761Z,17.60
2022-09-20T13:50:02.172Z,17.60
2022-09-20T13:52:33.012Z,17.70
2022-09-20T13:55:01.172Z,17.70
2022-09-20T13:57:31.102Z,17.30
2022-09-20T14:00:01.744Z,17.10
2022-09-20T14:02:33.472Z,17.10
2022-09-20T14:05:03.828Z,17.20
2022-09-20T14:07:36.789Z,17.40
2022-09-20T14:10:05.977Z,17.30
2022-09-20T14:12:34.776Z,17.30
2022-09-20T14:15:06.897Z,17.10
2022-09-20T14:17:36.873Z,17.10
2022-09-20T14:20:05.934Z,17.30
2022-09-20T14:22:35.571Z,17.40
2022-09-20T14:25:18.577Z,17.60
2022-09-20T14:27:46.669Z,17.70
2022-09-20T14:30:30.663Z,17.90
2022-09-20T14:32:59.930Z,18.00
2022-09-20T14:35:28.998Z,18.10
2022-09-20T14:38:01.880Z,18.10
2022-09-20T14:40:32.510Z,18.20
2022-09-20T14:43:02.581Z,17.80
2022-09-20T14:45:33.510Z,17.80
2022-09-20T14:48:11.100Z,17.90
2022-09-20T14:50:41.638Z,18.20
2022-09-20T14:53:27.363Z,18.20
2022-09-20T14:56:10.151Z,17.80
2022-09-20T14:59:08.080Z,18.10
2022-09-20T15:01:39.008Z,18.30
2022-09-20T15:04:09.956Z,18.20
2022-09-20T15:06:40.232Z,18.10
2022-09-20T15:09:13.333Z,17.90
2022-09-20T15:11:42.053Z,17.80
2022-09-20T15:14:10.196Z,17.50
2022-09-20T15:16:38.400Z,17.30
2022-09-20T15:19:08.543Z,17.20
2022-09-20T15:21:37.169Z,17.10
2022-09-20T15:24:05.600Z,17.00
2022-09-20T15:26:35.125Z,16.90
2022-09-20T15:29:03.284Z,16.80
2022-09-20T15:31:31.734Z,16.80
2022-09-20T15:33:59.869Z,16.70
2022-09-20T15:36:32.002Z,16.50
2022-09-20T15:39:00.291Z,16.30
2022-09-20T15:41:31.236Z,16.10
2022-09-20T15:44:01.632Z,16.00
2022-09-20T15:46:29.920Z,15.90
2022-09-20T15:49:00.356Z,15.90
2022-09-20T15:51:30.474Z,16.40
2022-09-20T15:54:00.168Z,16.80
2022-09-20T15:56:30.486Z,16.90
2022-09-20T15:59:02.875Z,17.30
2022-09-20T16:01:32.890Z,17.30
2022-09-20T16:04:02.156Z,17.50
2022-09-20T16:06:30.655Z,18.30
2022-09-20T16:08:58.796Z,21.00
2022-09-20T16:11:28.051Z,24.90
2022-09-20T16:13:57.753Z,26.60
2022-09-20T16:16:28.268Z,23.80
2022-09-20T16:19:13.560Z,20.20
2022-09-20T16:21:43.536Z,18.20
2022-09-20T16:24:13.448Z,17.10
2022-09-20T16:26:42.192Z,16.50
2022-09-20T16:29:11.743Z,16.20
2022-09-20T16:31:42.543Z,16.00
2022-09-20T16:34:17.072Z,15.90
2022-09-20T16:36:45.959Z,15.70
2022-09-20T16:39:15.342Z,15.60
2022-09-20T16:41:48.279Z,15.50
2022-09-20T16:44:16.819Z,15.30
2022-09-20T16:46:46.330Z,15.30
2022-09-20T16:49:16.802Z,15.30
2022-09-20T16:51:46.398Z,15.20
2022-09-20T16:54:16.018Z,15.10
2022-09-20T16:56:46.474Z,15.00
2022-09-20T16:59:16.649Z,14.90
2022-09-20T17:01:46.862Z,14.80
2022-09-20T17:04:16.871Z,14.80
2022-09-20T17:06:45.756Z,14.80
2022-09-20T17:09:15.260Z,14.70
2022-09-20T17:11:45.733Z,14.60
2022-09-20T17:14:15.025Z,14.50
2022-09-20T17:16:43.462Z,14.40
2022-09-20T17:19:15.756Z,14.20
2022-09-20T17:21:49.946Z,14.00
2022-09-20T17:24:19.047Z,13.80
2022-09-20T17:26:47.226Z,13.70
2022-09-20T17:29:17.435Z,13.60
2022-09-20T17:31:53.950Z,13.40
2022-09-20T17:34:25.409Z,13.30
2022-09-20T17:36:55.994Z,13.10
2022-09-20T17:39:25.654Z,13.10
2022-09-20T17:41:56.363Z,13.00
2022-09-20T17:44:25.639Z,12.90
2022-09-20T17:46:54.139Z,12.80
2022-09-20T17:49:26.745Z,12.70
2022-09-20T17:51:56.311Z,12.60
2022-09-20T17:54:25.065Z,12.60
2022-09-20T17:56:55.869Z,12.50
2022-09-20T17:59:24.598Z,12.40
2022-09-20T18:01:54.413Z,12.30
2022-09-20T18:04:25.073Z,12.30
2022-09-20T18:06:54.781Z,12.10
2022-09-20T18:09:24.882Z,12.10
2022-09-20T18:11:54.313Z,12.10
2022-09-20T18:14:24.223Z,12.10
2022-09-20T18:16:53.831Z,12.00
2022-09-20T18:19:23.644Z,12.00
2022-09-20T18:21:51.959Z,11.90
2022-09-20T18:24:20.171Z,11.80
2022-09-20T18:26:48.307Z,11.80
2022-09-20T18:29:18.262Z,11.80
2022-09-20T18:31:49.196Z,11.70
2022-09-20T18:34:19.144Z,11.60
2022-09-20T18:36:52.915Z,11.60
2022-09-20T18:39:21.831Z,11.50
2022-09-20T18:41:50.744Z,11.60
2022-09-20T18:44:19.534Z,11.40
2022-09-20T18:46:48.304Z,11.40
2022-09-20T18:49:17.136Z,11.50
2022-09-20T18:51:47.227Z,11.50
2022-09-20T18:54:16.938Z,11.50
2022-09-20T18:56:46.657Z,11.50
2022-09-20T18:59:17.012Z,11.40
2022-09-20T19:02:11.239Z,11.40
2022-09-20T19:04:56.123Z,11.40
2022-09-20T19:07:36.191Z,11.40
2022-09-20T19:10:13.224Z,11.30
2022-09-20T19:12:47.117Z,11.30
2022-09-20T19:15:31.191Z,11.30
2022-09-20T19:18:09.842Z,11.40
2022-09-20T19:20:46.668Z,11.40
2022-09-20T19:23:41.225Z,11.40
2022-09-20T19:26:19.853Z,11.50
2022-09-20T19:28:49.040Z,11.40
2022-09-20T19:31:23.662Z,11.40
2022-09-20T19:33:55.033Z,11.40
2022-09-20T19:36:23.940Z,11.40
2022-09-20T19:39:05.386Z,11.30
2022-09-20T19:41:47.320Z,11.30
2022-09-20T19:44:29.728Z,11.30
2022-09-20T19:47:24.131Z,11.40
2022-09-20T19:49:55.652Z,11.50
2022-09-20T19:52:24.916Z,11.60
2022-09-20T19:54:53.894Z,11.60
2022-09-20T19:57:26.722Z,11.60
2022-09-20T19:59:55.959Z,11.50
2022-09-20T20:02:24.664Z,11.60
2022-09-20T20:04:53.177Z,11.50
2022-09-20T20:07:30.046Z,11.50
2022-09-20T20:10:07.740Z,11.50
2022-09-20T20:12:45.759Z,11.60
2022-09-20T20:15:27.657Z,11.60
2022-09-20T20:18:02.286Z,11.60
2022-09-20T20:20:36.137Z,11.60
2022-09-20T20:23:33.713Z,11.60
2022-09-20T20:26:06.803Z,11.60
2022-09-20T20:28:37.233Z,11.60
2022-09-20T20:31:06.402Z,11.60
2022-09-20T20:33:34.600Z,11.60
2022-09-20T20:36:03.623Z,11.60
2022-09-20T20:38:36.936Z,11.60
2022-09-20T20:41:07.774Z,11.60
2022-09-20T20:43:38.704Z,11.60
2022-09-20T20:46:08.279Z,11.60
2022-09-20T20:48:37.210Z,11.70
2022-09-20T20:51:08.806Z,11.70
2022-09-20T20:53:39.290Z,11.80
2022-09-20T20:56:09.285Z,11.70
2022-09-20T20:58:40.868Z,11.70
2022-09-20T21:01:11.834Z,11.70
2022-09-20T21:03:41.142Z,11.70
2022-09-20T21:06:10.726Z,11.70
2022-09-20T21:08:40.834Z,11.80
2022-09-20T21:11:11.549Z,11.80
2022-09-20T21:13:41.493Z,11.80
2022-09-20T21:16:12.260Z,11.80
2022-09-20T21:18:41.608Z,11.90
2022-09-20T21:21:16.323Z,11.90
2022-09-20T21:23:45.777Z,11.90
2022-09-20T21:26:15.702Z,11.80
2022-09-20T21:28:48.853Z,11.80
2022-09-20T21:31:17.206Z,11.80
2022-09-20T21:33:45.722Z,11.80
2022-09-20T21:36:15.879Z,11.80
2022-09-20T21:38:45.331Z,11.80
2022-09-20T21:41:15.070Z,11.80
2022-09-20T21:43:46.135Z,11.70
2022-09-20T21:46:15.646Z,11.60
2022-09-20T21:48:44.209Z,11.60
2022-09-20T21:51:14.509Z,11.70
2022-09-20T21:53:42.876Z,11.60
2022-09-20T21:56:13.534Z,11.70
2022-09-20T21:58:41.974Z,11.60
2022-09-20T22:01:14.181Z,11.60
2022-09-20T22:03:45.335Z,11.60
2022-09-20T22:06:15.602Z,11.50
2022-09-20T22:08:47.518Z,11.60
2022-09-20T22:11:16.333Z,11.60
2022-09-20T22:13:45.381Z,11.70
2022-09-20T22:16:16.553Z,11.60
2022-09-20T22:18:46.107Z,11.70
2022-09-20T22:21:16.001Z,11.70
2022-09-20T22:23:44.897Z,11.60
2022-09-20T22:26:14.715Z,11.70
2022-09-20T22:28:43.775Z,11.70
2022-09-20T22:31:15.259Z,11.70
2022-09-20T22:33:44.994Z,11.60
2022-09-20T22:36:15.311Z,11.80
2022-09-20T22:38:44.264Z,11.80
2022-09-20T22:41:13.388Z,11.80
2022-09-20T22:43:41.857Z,11.80
2022-09-20T22:46:11.890Z,11.80
2022-09-20T22:48:42.097Z,11.90
2022-09-20T22:51:12.201Z,11.90
2022-09-20T22:53:40.563Z,11.90
2022-09-20T22:56:11.042Z,11.80
2022-09-20T22:58:40.928Z,11.80
2022-09-20T23:01:11.052Z,11.80
2022-09-20T23:03:41.742Z,11.80
2022-09-20T23:06:15.051Z,11.70
2022-09-20T23:08:43.691Z,11.60
2022-09-20T23:11:11.952Z,11.60
2022-09-20T23:13:40.383Z,11.60
2022-09-20T23:16:13.233Z,11.50
2022-09-20T23:18:43.149Z,11.40
2022-09-20T23:21:11.283Z,11.30
2022-09-20T23:23:43.144Z,11.30
2022-09-20T23:26:12.964Z,11.30
2022-09-20T23:28:43.902Z,11.30
2022-09-20T23:31:13.939Z,11.30
2022-09-20T23:33:48.357Z,11.20
2022-09-20T23:36:16.988Z,11.20
2022-09-20T23:38:45.450Z,11.10
2022-09-20T23:41:15.363Z,11.10
2022-09-20T23:43:43.939Z,11.10
2022-09-20T23:46:14.083Z,11.10
2022-09-20T23:48:44.360Z,11.10
2022-09-20T23:51:14.120Z,11.00
2022-09-20T23:53:43.116Z,11.00
2022-09-20T23:56:12.805Z,11.00
2022-09-20T23:58:42.322Z,10.90
